Time;durP1;ratioP1;P1;durP2;ratioP2;P2;SDS_P1;SDS_P2;PMS_P1;PMS_P2;Temp;Humidity;BMP_temperature;BMP_pressure;BME280_temperature;BME280_humidity;BME280_pressure;Samples;Min_cycle;Max_cycle;Signal;HPM_P1;HPM_P2
2022/01/02 00:00:16;;;;;;;;;;;;;;;21.85;36.17;96327.38;10451816;28;1884;-48
2022/01/02 00:05:19;;;;;;;;;;;;;;;21.86;35.80;96321.81;10464418;28;1905;-48
2022/01/02 00:10:20;;;;;;;;;;;;;;;21.88;35.86;96318.13;10473401;28;1938;-46
2022/01/02 00:15:20;;;;;;;;;;;;;;;21.86;35.81;96299.94;10466849;28;1855;-46
2022/01/02 00:20:36;;;;;;;;;;;;;;;21.86;36.01;96300.72;10467694;28;1903;-44
2022/01/02 00:25:40;;;;;;;;;;;;;;;21.86;36.33;96292.78;10458631;28;1857;-49
2022/01/02 00:30:41;;;;;;;;;;;;;;;21.83;36.06;96279.34;10457732;28;1983;-44
2022/01/02 00:35:42;;;;;;;;;;;;;;;21.85;36.24;96279.88;10453305;28;1799;-44
2022/01/02 00:40:44;;;;;;;;;;;;;;;21.86;36.21;96273.53;10459433;28;1869;-46
2022/01/02 00:45:45;;;;;;;;;;;;;;;21.84;36.24;96268.50;10463324;28;1844;-44
2022/01/02 00:50:49;;;;;;;;;;;;;;;21.83;36.45;96266.94;10454667;28;1977;-48
2022/01/02 00:55:54;;;;;;;;;;;;;;;21.86;36.22;96268.25;10468137;28;1817;-48
2022/01/02 01:00:56;;;;;;;;;;;;;;;21.85;36.00;96264.03;10460202;28;1877;-48
2022/01/02 01:05:57;;;;;;;;;;;;;;;21.83;35.92;96269.59;10475590;28;1817;-45
2022/01/02 01:10:58;;;;;;;;;;;;;;;21.82;36.37;96275.13;10467405;28;1906;-44
2022/01/02 01:15:59;;;;;;;;;;;;;;;21.86;36.18;96274.31;10467460;28;1865;-45
2022/01/02 01:20:59;;;;;;;;;;;;;;;21.84;35.96;96273.03;10454659;28;1841;-48
2022/01/02 01:26:06;;;;;;;;;;;;;;;21.82;35.90;96278.53;10470854;28;1935;-45
2022/01/02 01:31:06;;;;;;;;;;;;;;;21.81;36.14;96278.78;10465462;28;1905;-48
2022/01/02 01:36:07;;;;;;;;;;;;;;;21.81;35.62;96282.25;10475073;28;1817;-47
2022/01/02 01:41:35;;;;;;;;;;;;;;;21.81;35.60;96266.44;10473388;28;1794;-46
2022/01/02 01:46:37;;;;;;;;;;;;;;;21.83;35.71;96266.16;10473064;28;1850;-46
2022/01/02 01:51:37;;;;;;;;;;;;;;;21.83;36.05;96266.16;10464044;28;1982;-45
2022/01/02 01:56:38;;;;;;;;;;;;;;;21.82;35.64;96252.16;10471883;28;2043;-49
2022/01/02 02:01:39;;;;;;;;;;;;;;;21.83;35.76;96245.03;10464353;28;1793;-45
2022/01/02 02:06:40;;;;;;;;;;;;;;;21.86;35.82;96231.31;10468829;23;3430;-63
2022/01/02 02:11:40;;;;;;;;;;;;;;;21.81;35.36;96237.41;10436175;28;1918;-63
2022/01/02 02:16:41;;;;;;;;;;;;;;;21.83;35.49;96231.84;10430915;28;1931;-64
2022/01/02 02:21:42;;;;;;;;;;;;;;;21.80;35.81;96217.31;10402250;28;2111;-64
2022/01/02 02:26:44;;;;;;;;;;;;;;;21.83;35.46;96221.28;10407795;28;2052;-65
2022/01/02 02:31:45;;;;;;;;;;;;;;;21.80;35.37;96209.38;10397781;28;2167;-65
2022/01/02 02:36:46;;;;;;;;;;;;;;;21.79;35.86;96210.47;10403131;28;2151;-64
2022/01/02 02:41:46;;;;;;;;;;;;;;;21.79;35.68;96199.91;10407838;28;1929;-65
2022/01/02 02:52:15;;;;;;;;;;;;;;;21.78;35.72;96192.25;10400630;28;1925;-64
2022/01/02 02:57:18;;;;;;;;;;;;;;;21.77;35.43;96174.84;10399317;28;1977;-65
2022/01/02 03:02:18;;;;;;;;;;;;;;;21.79;35.37;96164.81;10400216;28;1945;-64
2022/01/02 03:07:19;;;;;;;;;;;;;;;21.77;35.50;96170.34;10410878;28;1988;-63
2022/01/02 03:12:20;;;;;;;;;;;;;;;21.76;35.25;96168.75;10404084;28;1997;-64
2022/01/02 03:17:22;;;;;;;;;;;;;;;21.76;35.44;96173.28;10406972;28;2024;-65
2022/01/02 03:22:29;;;;;;;;;;;;;;;21.77;35.23;96161.66;10402313;28;1985;-65
2022/01/02 03:27:32;;;;;;;;;;;;;;;21.72;35.26;96151.13;10406187;28;1944;-64
2022/01/02 03:32:33;;;;;;;;;;;;;;;21.75;35.44;96142.66;10397048;28;1895;-65
2022/01/02 03:37:34;;;;;;;;;;;;;;;21.75;34.90;96148.72;10404436;28;1925;-65
2022/01/02 03:42:35;;;;;;;;;;;;;;;21.76;35.35;96157.44;10398035;28;1905;-65
2022/01/02 03:47:35;;;;;;;;;;;;;;;21.75;35.29;96155.84;10403733;28;2070;-65
2022/01/02 03:52:36;;;;;;;;;;;;;;;21.76;35.15;96141.59;10397157;28;2357;-65
2022/01/02 03:57:36;;;;;;;;;;;;;;;21.74;35.07;96127.91;10404107;28;1985;-64
2022/01/02 04:02:37;;;;;;;;;;;;;;;21.73;34.82;96116.53;10400946;28;1893;-64
2022/01/02 04:07:38;;;;;;;;;;;;;;;21.73;35.25;96121.81;10395601;28;1973;-63
2022/01/02 04:12:38;;;;;;;;;;;;;;;21.74;35.21;96125.25;10394096;28;2022;-65
2022/01/02 04:17:39;;;;;;;;;;;;;;;21.73;35.10;96113.91;10403286;28;2040;-65
2022/01/02 04:22:39;;;;;;;;;;;;;;;21.72;34.99;96114.19;10401045;28;1943;-65
2022/01/02 04:27:40;;;;;;;;;;;;;;;21.72;35.10;96108.91;10407718;28;1968;-65
2022/01/02 04:32:40;;;;;;;;;;;;;;;21.71;34.82;96107.31;10411012;28;1871;-65
2022/01/02 04:37:41;;;;;;;;;;;;;;;21.72;35.11;96108.91;10410331;28;1992;-65
2022/01/02 04:42:42;;;;;;;;;;;;;;;21.71;34.70;96107.31;10406903;28;1973;-65
2022/01/02 04:47:43;;;;;;;;;;;;;;;21.71;34.97;96102.03;10411994;28;1914;-64
2022/01/02 04:52:43;;;;;;;;;;;;;;;21.69;34.41;96101.53;10406226;28;1985;-65
2022/01/02 04:57:44;;;;;;;;;;;;;;;21.71;34.66;96087.00;10407935;28;1960;-65
2022/01/02 05:02:44;;;;;;;;;;;;;;;21.69;34.28;96085.69;10424183;28;1971;-65
2022/01/02 05:07:45;;;;;;;;;;;;;;;21.69;34.93;96072.50;10406744;28;1913;-65
2022/01/02 05:12:45;;;;;;;;;;;;;;;21.68;34.09;96076.19;10405154;28;1980;-65
2022/01/02 05:17:46;;;;;;;;;;;;;;;21.68;34.56;96070.91;10407559;28;2040;-65
2022/01/02 05:22:46;;;;;;;;;;;;;;;21.67;34.63;96061.44;10404308;28;2003;-64
2022/01/02 05:27:46;;;;;;;;;;;;;;;21.69;34.57;96059.31;10405315;28;1918;-65
2022/01/02 05:32:47;;;;;;;;;;;;;;;21.68;34.01;96057.72;10400904;28;2001;-65
2022/01/02 05:37:47;;;;;;;;;;;;;;;21.67;34.05;96041.13;10408299;28;1994;-65
2022/01/02 05:42:48;;;;;;;;;;;;;;;21.68;34.27;96047.16;10404658;28;1968;-65
2022/01/02 05:47:48;;;;;;;;;;;;;;;21.66;34.00;96055.38;10410192;28;1911;-65
2022/01/02 05:52:49;;;;;;;;;;;;;;;21.68;34.43;96049.81;10406314;28;2045;-63
2022/01/02 05:57:49;;;;;;;;;;;;;;;21.67;34.47;96043.75;10403438;28;1960;-63
2022/01/02 06:02:50;;;;;;;;;;;;;;;21.67;34.33;96043.75;10402268;28;1913;-62
2022/01/02 06:07:50;;;;;;;;;;;;;;;21.69;34.64;96039.00;10405068;28;1973;-63
2022/01/02 06:12:51;;;;;;;;;;;;;;;21.66;34.35;96034.25;10408179;28;1966;-63
2022/01/02 06:17:51;;;;;;;;;;;;;;;21.67;34.34;96020.03;10402580;28;1945;-62
2022/01/02 06:22:53;;;;;;;;;;;;;;;21.69;34.36;96031.09;10395497;28;1934;-64
2022/01/02 06:27:54;;;;;;;;;;;;;;;21.66;33.99;96031.63;10410016;28;1926;-63
2022/01/02 06:32:55;;;;;;;;;;;;;;;21.70;33.91;96029.25;10405373;28;1850;-64
2022/01/02 06:37:55;;;;;;;;;;;;;;;21.66;33.85;96030.81;10407709;28;1969;-65
2022/01/02 06:42:56;;;;;;;;;;;;;;;21.69;33.97;96032.94;10399630;28;1905;-65
2022/01/02 06:47:56;;;;;;;;;;;;;;;21.68;34.26;96033.97;10397544;28;2101;-65
2022/01/02 06:52:57;;;;;;;;;;;;;;;21.66;34.15;96028.97;10399298;28;1999;-65
2022/01/02 06:57:57;;;;;;;;;;;;;;;21.68;33.99;96028.69;10402825;28;1909;-65
2022/01/02 07:02:57;;;;;;;;;;;;;;;21.68;34.36;96028.69;10396755;28;1956;-65
2022/01/02 07:07:58;;;;;;;;;;;;;;;21.68;34.25;96028.69;10401759;28;1988;-65
2022/01/02 07:13:00;;;;;;;;;;;;;;;21.64;33.75;96028.47;10397626;28;1911;-65
2022/01/02 07:18:00;;;;;;;;;;;;;;;21.67;34.03;96024.50;10398832;28;2109;-65
2022/01/02 07:23:01;;;;;;;;;;;;;;;21.65;34.36;96022.13;10396767;28;2273;-65
2022/01/02 07:28:01;;;;;;;;;;;;;;;21.64;33.67;96020.56;10395411;28;1974;-65
2022/01/02 07:33:02;;;;;;;;;;;;;;;21.64;33.41;96017.91;10399654;28;1925;-65
2022/01/02 07:38:02;;;;;;;;;;;;;;;21.67;33.63;96021.84;10407924;28;2015;-64
2022/01/02 07:43:03;;;;;;;;;;;;;;;21.66;33.24;96009.72;10397284;28;1961;-65
2022/01/02 07:48:03;;;;;;;;;;;;;;;21.68;34.32;96013.66;10397677;28;2044;-64
2022/01/02 07:53:03;;;;;;;;;;;;;;;21.66;34.07;96005.22;10398835;28;1966;-65
2022/01/02 07:58:04;;;;;;;;;;;;;;;21.65;33.47;95984.41;10399909;28;1905;-64
2022/01/02 08:03:05;;;;;;;;;;;;;;;21.68;33.57;95989.13;10395294;28;2030;-64
2022/01/02 08:08:05;;;;;;;;;;;;;;;21.67;33.59;95984.94;10402109;28;1992;-63
2022/01/02 08:13:06;;;;;;;;;;;;;;;21.67;33.60;95987.56;10431753;23;2971;-46
2022/01/02 08:18:06;;;;;;;;;;;;;;;21.72;34.11;95990.19;10439908;28;1939;-49
2022/01/02 08:23:06;;;;;;;;;;;;;;;21.76;34.11;95983.28;10412740;28;1938;-51
2022/01/02 08:28:07;;;;;;;;;;;;;;;21.74;34.67;95986.19;10398114;28;2630;-48
2022/01/02 08:33:07;;;;;;;;;;;;;;;21.76;34.65;95978.78;10399486;28;1950;-45
2022/01/02 08:38:08;;;;;;;;;;;;;;;21.79;35.49;95982.72;10399755;28;1983;-46
2022/01/02 08:43:08;;;;;;;;;;;;;;;21.80;35.52;95973.75;10391775;28;2031;-47
2022/01/02 08:48:09;;;;;;;;;;;;;;;21.83;35.69;95978.50;10393619;28;2017;-48
2022/01/02 08:53:09;;;;;;;;;;;;;;;21.83;35.98;95979.28;10389831;28;1918;-47
2022/01/02 08:58:10;;;;;;;;;;;;;;;21.83;35.61;95981.13;10400683;28;1782;-47
2022/01/02 09:03:10;;;;;;;;;;;;;;;21.81;35.90;95970.03;10396650;28;2357;-47
2022/01/02 09:08:11;;;;;;;;;;;;;;;21.80;36.05;95963.19;10389561;28;2442;-48
2022/01/02 09:13:12;;;;;;;;;;;;;;;21.82;35.90;95961.88;10397421;28;2092;-52
2022/01/02 09:18:13;;;;;;;;;;;;;;;21.80;35.47;95952.66;10398852;28;1953;-49
2022/01/02 09:23:13;;;;;;;;;;;;;;;21.79;35.62;95951.84;10402549;28;1959;-47
2022/01/02 09:28:14;;;;;;;;;;;;;;;21.79;35.58;95949.22;10401764;28;1968;-47
2022/01/02 09:33:15;;;;;;;;;;;;;;;21.80;36.08;95955.28;10402687;28;2113;-50
2022/01/02 09:38:15;;;;;;;;;;;;;;;21.82;35.90;95953.94;10404518;28;2127;-46
2022/01/02 09:43:16;;;;;;;;;;;;;;;21.88;35.89;95960.00;10402759;28;1808;-49
2022/01/02 09:48:17;;;;;;;;;;;;;;;21.87;36.07;95958.41;10402600;28;2192;-47
2022/01/02 09:53:18;;;;;;;;;;;;;;;21.90;35.99;95957.06;10399481;28;2274;-49
2022/01/02 09:58:18;;;;;;;;;;;;;;;21.93;35.83;95959.19;10403117;28;1806;-49
2022/01/02 10:03:19;;;;;;;;;;;;;;;21.95;36.01;95965.72;10402361;28;1858;-49
2022/01/02 10:08:36;;;;;;;;;;;;;;;21.95;35.86;95949.13;10401072;28;1902;-52
2022/01/02 10:13:37;;;;;;;;;;;;;;;21.99;35.59;95950.91;10397675;28;1808;-48
2022/01/02 10:18:38;;;;;;;;;;;;;;;21.97;35.61;95944.34;10396417;28;1907;-48
2022/01/02 10:23:38;;;;;;;;;;;;;;;21.96;35.72;95938.28;10401805;28;1758;-49
2022/01/02 10:28:40;;;;;;;;;;;;;;;21.98;35.66;95925.59;10383670;28;1977;-47
2022/01/02 10:33:53;;;;;;;;;;;;;;;21.96;35.74;95933.00;10401293;28;1897;-50
2022/01/02 10:39:09;;;;;;;;;;;;;;;21.96;35.81;95914.53;10403346;28;1799;-47
2022/01/02 10:44:15;;;;;;;;;;;;;;;21.97;35.77;95923.25;10399582;28;1750;-49
2022/01/02 10:49:16;;;;;;;;;;;;;;;21.95;35.77;95910.31;10401852;28;1901;-49
2022/01/02 10:54:17;;;;;;;;;;;;;;;21.93;35.65;95904.50;10400588;28;1869;-48
2022/01/02 10:59:17;;;;;;;;;;;;;;;21.92;35.81;95908.25;10399245;28;1830;-51
2022/01/02 11:04:18;;;;;;;;;;;;;;;21.91;35.72;95897.97;10400257;28;1841;-48
2022/01/02 11:09:20;;;;;;;;;;;;;;;21.88;35.94;95895.88;10396087;28;1974;-49
2022/01/02 11:14:21;;;;;;;;;;;;;;;21.87;35.93;95903.00;10400308;28;1886;-49
2022/01/02 11:19:21;;;;;;;;;;;;;;;21.84;35.80;95885.09;10398793;28;1877;-47
2022/01/02 11:24:23;;;;;;;;;;;;;;;21.83;35.71;95888.78;10397831;28;1766;-47
2022/01/02 11:29:27;;;;;;;;;;;;;;;21.81;35.86;95890.88;10397215;28;2194;-50
2022/01/02 11:34:28;;;;;;;;;;;;;;;21.81;35.79;95893.50;10398475;28;1872;-48
2022/01/02 11:39:29;;;;;;;;;;;;;;;21.79;36.00;95879.81;10397282;28;1865;-47
2022/01/02 11:44:48;;;;;;;;;;;;;;;21.77;36.22;95876.66;10415227;28;1810;-47
2022/01/02 11:49:48;;;;;;;;;;;;;;;21.79;35.91;95862.13;10395790;28;1964;-49
2022/01/02 11:54:50;;;;;;;;;;;;;;;21.76;35.89;95846.09;10398518;28;1763;-53
2022/01/02 11:59:52;;;;;;;;;;;;;;;21.75;36.13;95834.72;10379683;28;2022;-48
2022/01/02 12:10:15;;;;;;;;;;;;;;;21.72;35.97;95818.69;10395582;28;1973;-46
2022/01/02 12:15:15;;;;;;;;;;;;;;;21.72;36.33;95819.44;10396870;28;1856;-46
2022/01/02 12:20:16;;;;;;;;;;;;;;;21.72;36.35;95834.50;10408254;28;1908;-49
2022/01/02 12:25:17;;;;;;;;;;;;;;;21.71;36.10;95833.72;10409271;28;2029;-53
2022/01/02 12:30:18;;;;;;;;;;;;;;;21.71;36.38;95832.94;10393945;28;1901;-48
2022/01/02 12:35:19;;;;;;;;;;;;;;;21.73;36.17;95836.88;10394232;28;1857;-50
2022/01/02 12:40:20;;;;;;;;;;;;;;;21.73;36.17;95831.59;10396623;28;1932;-47
2022/01/02 12:45:20;;;;;;;;;;;;;;;21.73;36.22;95830.78;10397312;28;1863;-50
2022/01/02 12:50:22;;;;;;;;;;;;;;;21.72;36.47;95839.78;10396056;28;2002;-51
2022/01/02 12:55:23;;;;;;;;;;;;;;;21.71;36.26;95830.28;10401581;28;2026;-47
2022/01/02 13:00:24;;;;;;;;;;;;;;;21.73;36.54;95841.34;10398685;28;1896;-48
2022/01/02 13:05:24;;;;;;;;;;;;;;;21.73;36.16;95847.41;10401008;28;1900;-47
2022/01/02 13:10:25;;;;;;;;;;;;;;;21.73;36.36;95844.78;10399934;28;1969;-47
2022/01/02 13:15:27;;;;;;;;;;;;;;;21.75;36.26;95834.72;10402967;28;1853;-50
2022/01/02 13:20:27;;;;;;;;;;;;;;;21.79;36.18;95840.22;10403955;28;1801;-46
2022/01/02 13:25:32;;;;;;;;;;;;;;;21.79;36.03;95842.88;10401024;28;1975;-51
2022/01/02 13:30:37;;;;;;;;;;;;;;;21.79;36.19;95846.31;10403025;28;1913;-51
2022/01/02 13:35:38;;;;;;;;;;;;;;;21.80;36.05;95833.91;10402829;28;1867;-46
2022/01/02 13:40:39;;;;;;;;;;;;;;;21.81;36.18;95841.56;10401680;28;1812;-50
2022/01/02 13:45:42;;;;;;;;;;;;;;;21.82;36.33;95847.63;10402318;28;1899;-51
2022/01/02 13:50:42;;;;;;;;;;;;;;;21.85;35.87;95844.44;10400195;28;1985;-46
2022/01/02 13:55:45;;;;;;;;;;;;;;;21.85;36.05;95842.59;10402927;28;1869;-49
2022/01/02 14:00:46;;;;;;;;;;;;;;;21.85;36.04;95839.16;10398629;28;1896;-47
2022/01/02 14:05:48;;;;;;;;;;;;;;;21.86;36.09;95846.00;10398756;28;1825;-49
2022/01/02 14:11:09;;;;;;;;;;;;;;;21.85;36.07;95849.69;10401622;28;1914;-50
2022/01/02 14:16:15;;;;;;;;;;;;;;;21.85;35.77;95847.06;10411652;23;3713;-63
2022/01/02 14:21:15;;;;;;;;;;;;;;;21.84;36.23;95848.16;10398548;28;1996;-63
2022/01/02 14:26:16;;;;;;;;;;;;;;;21.82;35.89;95850.28;10437185;28;1818;-63
2022/01/02 14:31:16;;;;;;;;;;;;;;;21.83;36.25;95836.78;10430991;28;1969;-61
2022/01/02 14:36:17;;;;;;;;;;;;;;;21.81;36.35;95835.47;10435125;28;2047;-63
2022/01/02 14:41:18;;;;;;;;;;;;;;;21.82;36.25;95824.66;10447011;28;1893;-63
2022/01/02 14:46:19;;;;;;;;;;;;;;;21.81;36.20;95819.63;10437625;28;1933;-62
2022/01/02 14:51:19;;;;;;;;;;;;;;;21.83;36.08;95814.88;10451171;28;1890;-63
2022/01/02 14:56:20;;;;;;;;;;;;;;;21.83;36.44;95815.69;10441923;28;1850;-63
2022/01/02 15:01:21;;;;;;;;;;;;;;;21.89;36.31;95813.78;10440043;28;1758;-63
2022/01/02 15:06:21;;;;;;;;;;;;;;;21.86;36.25;95816.97;10436689;28;1767;-63
2022/01/02 15:11:22;;;;;;;;;;;;;;;21.84;36.22;95819.13;10436389;28;1977;-64
2022/01/02 15:16:23;;;;;;;;;;;;;;;21.83;36.48;95817.53;10433803;28;1768;-64
2022/01/02 15:21:24;;;;;;;;;;;;;;;21.80;36.45;95815.44;10433454;28;1898;-63
2022/01/02 15:26:25;;;;;;;;;;;;;;;21.82;36.19;95808.06;10428911;28;1845;-64
2022/01/02 15:31:25;;;;;;;;;;;;;;;21.84;36.79;95803.28;10435600;28;1977;-63
2022/01/02 15:36:26;;;;;;;;;;;;;;;21.86;36.59;95807.19;10436130;28;1803;-59
2022/01/02 15:41:27;;;;;;;;;;;;;;;21.85;36.93;95804.84;10434919;28;1819;-65
2022/01/02 15:46:28;;;;;;;;;;;;;;;21.84;36.76;95811.19;10432936;28;1776;-65
2022/01/02 15:51:28;;;;;;;;;;;;;;;21.84;36.53;95805.91;10443841;28;1977;-66
2022/01/02 15:56:29;;;;;;;;;;;;;;;21.83;36.50;95809.63;10432706;28;1846;-64
2022/01/02 16:01:29;;;;;;;;;;;;;;;21.79;36.61;95813.84;10434064;28;1844;-66
2022/01/02 16:06:30;;;;;;;;;;;;;;;21.77;36.49;95800.16;10432291;28;1818;-64
2022/01/02 16:11:31;;;;;;;;;;;;;;;21.75;36.51;95807.56;10444036;28;1914;-64
2022/01/02 16:16:34;;;;;;;;;;;;;;;21.76;36.56;95807.28;10430340;28;1794;-64
2022/01/02 16:21:35;;;;;;;;;;;;;;;21.78;36.60;95807.00;10442276;28;1854;-64
2022/01/02 16:26:36;;;;;;;;;;;;;;;21.74;36.62;95795.44;10454163;28;1814;-65
2022/01/02 16:31:37;;;;;;;;;;;;;;;21.82;36.62;95800.13;10439281;28;1909;-65
2022/01/02 16:36:37;;;;;;;;;;;;;;;21.80;36.79;95791.69;10441552;28;1843;-66
2022/01/02 16:41:38;;;;;;;;;;;;;;;21.78;36.83;95791.94;10440048;28;1838;-64
2022/01/02 16:46:38;;;;;;;;;;;;;;;21.78;36.63;95793.81;10437841;28;1759;-64
2022/01/02 16:51:40;;;;;;;;;;;;;;;21.79;36.49;95790.91;10432262;28;1899;-64
2022/01/02 16:56:41;;;;;;;;;;;;;;;21.79;36.48;95780.34;10436697;28;1854;-64
2022/01/02 17:01:41;;;;;;;;;;;;;;;21.78;36.51;95783.25;10440983;28;1802;-62
2022/01/02 17:06:45;;;;;;;;;;;;;;;21.79;36.41;95782.97;10441193;28;1786;-63
2022/01/02 17:11:49;;;;;;;;;;;;;;;21.80;36.61;95779.25;10440810;28;1975;-63
2022/01/02 17:16:50;;;;;;;;;;;;;;;21.85;36.54;95770.53;10432811;28;1606;-62
2022/01/02 17:21:51;;;;;;;;;;;;;;;21.83;36.57;95768.19;10432807;28;1395;-62
2022/01/02 17:26:52;;;;;;;;;;;;;;;21.84;36.47;95759.19;10441132;28;1280;-62
2022/01/02 17:32:06;;;;;;;;;;;;;;;21.85;36.42;95776.59;10436021;28;1918;-63
2022/01/02 17:37:07;;;;;;;;;;;;;;;21.84;36.62;95777.66;10440535;28;1434;-62
2022/01/02 17:42:08;;;;;;;;;;;;;;;21.87;36.00;95776.31;10427935;28;1454;-62
2022/01/02 17:47:09;;;;;;;;;;;;;;;21.85;35.76;95766.06;10435497;28;1273;-63
2022/01/02 17:52:09;;;;;;;;;;;;;;;21.86;36.16;95772.88;10434240;28;1918;-64
2022/01/02 17:57:10;;;;;;;;;;;;;;;21.88;35.80;95770.75;10438142;28;1370;-63
2022/01/02 18:02:11;;;;;;;;;;;;;;;21.88;35.54;95769.19;10445249;28;1467;-62
2022/01/02 18:07:11;;;;;;;;;;;;;;;21.93;36.42;95775.19;10431526;28;1367;-64
2022/01/02 18:12:12;;;;;;;;;;;;;;;21.94;35.72;95770.72;10445171;28;1914;-65
2022/01/02 18:17:13;;;;;;;;;;;;;;;21.95;35.88;95775.69;10435525;28;1669;-63
2022/01/02 18:22:15;;;;;;;;;;;;;;;21.93;35.23;95767.28;10455621;28;1648;-63
2022/01/02 18:27:17;;;;;;;;;;;;;;;21.92;35.43;95780.75;10443546;28;1377;-62
2022/01/02 18:32:17;;;;;;;;;;;;;;;21.90;34.58;95769.69;10431835;28;1961;-64
2022/01/02 18:37:18;;;;;;;;;;;;;;;21.92;34.37;95776.28;10437039;28;1370;-65
2022/01/02 18:42:19;;;;;;;;;;;;;;;21.94;35.08;95778.63;10433768;28;1421;-63
2022/01/02 18:47:20;;;;;;;;;;;;;;;21.91;34.79;95758.09;10438726;28;1271;-64
2022/01/02 18:52:21;;;;;;;;;;;;;;;21.98;36.61;95756.69;10442694;28;1967;-63
2022/01/02 18:57:21;;;;;;;;;;;;;;;22.00;35.75;95765.09;10435182;28;1291;-64
2022/01/02 19:02:23;;;;;;;;;;;;;;;21.94;33.81;95747.75;10442175;28;1322;-60
2022/01/02 19:07:24;;;;;;;;;;;;;;;21.96;34.84;95750.09;10431566;28;1284;-62
2022/01/02 19:12:24;;;;;;;;;;;;;;;21.99;36.33;95762.75;10446291;28;1913;-63
2022/01/02 19:17:26;;;;;;;;;;;;;;;22.01;36.67;95750.06;10432380;28;1766;-64
2022/01/02 19:22:26;;;;;;;;;;;;;;;22.01;36.94;95742.91;10447752;28;1616;-64
2022/01/02 19:27:27;;;;;;;;;;;;;;;22.01;37.47;95742.91;10436619;28;1228;-66
2022/01/02 19:32:28;;;;;;;;;;;;;;;22.03;37.51;95751.31;10422646;28;1968;-64
2022/01/02 19:37:28;;;;;;;;;;;;;;;22.01;37.94;95745.53;10432391;28;1884;-65
2022/01/02 19:42:29;;;;;;;;;;;;;;;22.04;38.59;95742.34;10432413;28;2107;-65
2022/01/02 19:47:30;;;;;;;;;;;;;;;22.01;38.68;95745.53;10433502;28;1952;-63
2022/01/02 19:52:30;;;;;;;;;;;;;;;21.99;39.08;95749.56;10437764;28;1949;-62
2022/01/02 19:57:31;;;;;;;;;;;;;;;21.95;39.20;95744.03;10452160;28;1867;-63
2022/01/02 20:02:32;;;;;;;;;;;;;;;21.92;38.96;95746.44;10430002;28;1891;-63
2022/01/02 20:07:32;;;;;;;;;;;;;;;21.92;39.24;95762.28;10428216;28;1735;-62
2022/01/02 20:12:33;;;;;;;;;;;;;;;21.87;39.46;95768.41;10428440;28;1910;-64
2022/01/02 20:17:36;;;;;;;;;;;;;;;21.85;39.35;95770.53;10426712;28;1752;-65
2022/01/02 20:22:36;;;;;;;;;;;;;;;21.83;38.99;95784.03;10428872;28;1790;-65
2022/01/02 20:27:37;;;;;;;;;;;;;;;21.79;39.36;95774.28;10447970;28;1978;-64
2022/01/02 20:32:39;;;;;;;;;;;;;;;21.78;39.36;95775.34;10426497;28;1910;-64
2022/01/02 20:37:40;;;;;;;;;;;;;;;21.77;39.47;95760.56;10447476;23;2738;-49
2022/01/02 20:42:41;;;;;;;;;;;;;;;21.75;39.46;95770.63;10421142;28;1866;-50
2022/01/02 20:47:42;;;;;;;;;;;;;;;21.74;39.47;95759.28;10412804;28;1921;-46
2022/01/02 20:52:42;;;;;;;;;;;;;;;21.74;39.29;95735.53;10416678;28;2234;-51
2022/01/02 20:57:44;;;;;;;;;;;;;;;21.77;39.06;95734.19;10424064;28;2153;-47
2022/01/02 21:02:44;;;;;;;;;;;;;;;21.74;38.99;95748.72;10428643;28;1896;-46
2022/01/02 21:07:45;;;;;;;;;;;;;;;21.75;39.06;95733.69;10434694;28;2139;-50
2022/01/02 21:12:46;;;;;;;;;;;;;;;21.76;38.97;95719.44;10442237;28;1966;-49
2022/01/02 21:17:47;;;;;;;;;;;;;;;21.74;39.08;95732.13;10439106;28;1756;-50
2022/01/02 21:22:48;;;;;;;;;;;;;;;21.75;38.71;95737.13;10447911;28;1812;-49
2022/01/02 21:27:49;;;;;;;;;;;;;;;21.74;38.70;95730.25;10434765;28;2210;-48
2022/01/02 21:32:49;;;;;;;;;;;;;;;21.75;38.83;95752.16;10434433;28;2262;-46
2022/01/02 21:37:57;;;;;;;;;;;;;;;21.76;38.56;95762.41;10423196;28;2009;-50
2022/01/02 21:42:58;;;;;;;;;;;;;;;21.75;38.38;95771.41;10435696;28;2206;-48
2022/01/02 21:47:58;;;;;;;;;;;;;;;21.77;38.37;95789.59;10434832;28;2202;-47
2022/01/02 21:52:59;;;;;;;;;;;;;;;21.75;38.28;95778.53;10441446;28;2158;-47
2022/01/02 21:58:00;;;;;;;;;;;;;;;21.75;38.35;95776.69;10439110;28;2288;-51
2022/01/02 22:03:04;;;;;;;;;;;;;;;21.76;38.29;95774.84;10438096;28;2126;-46
2022/01/02 22:08:05;;;;;;;;;;;;;;;21.77;38.14;95763.22;10438557;28;1909;-52
2022/01/02 22:13:05;;;;;;;;;;;;;;;21.76;37.98;95753.72;10442811;28;2151;-49
2022/01/02 22:18:06;;;;;;;;;;;;;;;21.76;37.60;95737.91;10440602;28;2083;-47
2022/01/02 22:23:07;;;;;;;;;;;;;;;21.76;37.65;95735.25;10439463;28;1802;-51
2022/01/02 22:28:08;;;;;;;;;;;;;;;21.75;37.61;95760.84;10437033;28;1910;-50
2022/01/02 22:33:13;;;;;;;;;;;;;;;21.74;37.37;95755.88;10439145;28;1857;-50
2022/01/02 22:38:13;;;;;;;;;;;;;;;21.74;37.47;95755.88;10438006;28;1920;-46
2022/01/02 22:43:14;;;;;;;;;;;;;;;21.74;37.20;95774.34;10447025;28;2104;-50
2022/01/02 22:48:15;;;;;;;;;;;;;;;21.75;37.23;95754.78;10430931;28;2190;-49
2022/01/02 22:53:17;;;;;;;;;;;;;;;21.71;37.17;95741.38;10454732;28;2344;-49
2022/01/02 22:58:17;;;;;;;;;;;;;;;21.76;36.92;95745.81;10438810;28;2135;-49
2022/01/02 23:03:24;;;;;;;;;;;;;;;21.74;37.02;95766.41;10432859;28;2144;-48
2022/01/02 23:08:24;;;;;;;;;;;;;;;21.73;36.91;95754.28;10440706;28;1918;-48
2022/01/02 23:13:25;;;;;;;;;;;;;;;21.73;36.65;95762.19;10443962;28;1828;-47
2022/01/02 23:18:26;;;;;;;;;;;;;;;21.73;36.56;95752.44;10440464;28;1850;-48
2022/01/02 23:23:27;;;;;;;;;;;;;;;21.73;36.70;95764.84;10450689;28;1785;-47
2022/01/02 23:28:28;;;;;;;;;;;;;;;21.71;36.51;95769.59;10435553;28;1973;-45
2022/01/02 23:33:28;;;;;;;;;;;;;;;21.71;36.47;95762.50;10435408;28;2251;-48
2022/01/02 23:38:29;;;;;;;;;;;;;;;21.69;36.60;95767.25;10435482;28;2286;-45
2022/01/02 23:43:30;;;;;;;;;;;;;;;21.70;36.34;95771.44;10444958;28;1770;-45
2022/01/02 23:48:32;;;;;;;;;;;;;;;21.71;36.49;95764.34;10437894;28;1910;-48
2022/01/02 23:53:37;;;;;;;;;;;;;;;21.69;36.47;95761.19;10450874;28;1850;-52
2022/01/02 23:58:39;;;;;;;;;;;;;;;21.69;36.15;95756.69;10439439;28;1774;-51
